sensor_id;sensor_type;location;lat;lon;timestamp;pressure;altitude;pressure_sealevel;temperature;humidity
32181;BME280;19172;51.504;3.894;2022-11-30T00:01:23;102202.88;;;15.63;84.89
32181;BME280;19172;51.504;3.894;2022-11-30T00:03:55;102211.72;;;15.56;85.07
32181;BME280;19172;51.504;3.894;2022-11-30T00:06:24;102220.31;;;15.09;84.92
32181;BME280;19172;51.504;3.894;2022-11-30T00:08:54;102204.47;;;15.27;86.48
32181;BME280;19172;51.504;3.894;2022-11-30T00:11:24;102205.41;;;15.42;87.00
32181;BME280;19172;51.504;3.894;2022-11-30T00:13:53;102209.00;;;15.47;86.95
32181;BME280;19172;51.504;3.894;2022-11-30T00:16:21;102205.34;;;15.29;86.55
32181;BME280;19172;51.504;3.894;2022-11-30T00:18:50;102203.69;;;15.48;87.48
32181;BME280;19172;51.504;3.894;2022-11-30T00:21:18;102208.06;;;15.45;86.69
32181;BME280;19172;51.504;3.894;2022-11-30T00:23:46;102216.69;;;14.89;86.46
32181;BME280;19172;51.504;3.894;2022-11-30T00:26:17;102206.19;;;15.15;87.15
32181;BME280;19172;51.504;3.894;2022-11-30T00:28:45;102206.16;;;15.16;87.65
32181;BME280;19172;51.504;3.894;2022-11-30T00:31:15;102206.22;;;15.25;88.54
32181;BME280;19172;51.504;3.894;2022-11-30T00:33:44;102207.22;;;15.44;88.70
32181;BME280;19172;51.504;3.894;2022-11-30T00:36:17;102209.03;;;15.54;87.71
32181;BME280;19172;51.504;3.894;2022-11-30T00:38:46;102207.25;;;15.52;85.82
32181;BME280;19172;51.504;3.894;2022-11-30T00:41:15;102210.69;;;15.32;85.16
32181;BME280;19172;51.504;3.894;2022-11-30T00:43:43;102216.94;;;15.36;86.18
32181;BME280;19172;51.504;3.894;2022-11-30T00:46:11;102208.66;;;14.86;84.89
32181;BME280;19172;51.504;3.894;2022-11-30T00:48:40;102207.69;;;14.75;85.48
32181;BME280;19172;51.504;3.894;2022-11-30T00:51:09;102210.63;;;15.19;87.13
32181;BME280;19172;51.504;3.894;2022-11-30T00:53:39;102217.63;;;14.99;87.21
32181;BME280;19172;51.504;3.894;2022-11-30T00:56:08;102220.38;;;15.14;87.41
32181;BME280;19172;51.504;3.894;2022-11-30T00:58:36;102220.03;;;14.65;88.11
32181;BME280;19172;51.504;3.894;2022-11-30T01:01:05;102210.47;;;14.89;89.30
32181;BME280;19172;51.504;3.894;2022-11-30T01:03:34;102209.66;;;15.02;89.65
32181;BME280;19172;51.504;3.894;2022-11-30T01:06:03;102211.53;;;15.21;88.87
32181;BME280;19172;51.504;3.894;2022-11-30T01:08:32;102199.94;;;15.16;89.11
32181;BME280;19172;51.504;3.894;2022-11-30T01:11:11;102196.38;;;15.11;89.07
32181;BME280;19172;51.504;3.894;2022-11-30T01:13:40;102201.78;;;15.26;89.47
32181;BME280;19172;51.504;3.894;2022-11-30T01:16:11;102207.09;;;15.26;89.36
32181;BME280;19172;51.504;3.894;2022-11-30T01:18:39;102202.72;;;15.42;88.33
32181;BME280;19172;51.504;3.894;2022-11-30T01:21:11;102209.94;;;15.58;87.42
32181;BME280;19172;51.504;3.894;2022-11-30T01:23:40;102214.28;;;15.41;86.03
32181;BME280;19172;51.504;3.894;2022-11-30T01:26:08;102207.06;;;15.14;86.34
32181;BME280;19172;51.504;3.894;2022-11-30T01:28:36;102211.53;;;15.22;86.72
32181;BME280;19172;51.504;3.894;2022-11-30T01:31:07;102204.41;;;15.20;87.37
32181;BME280;19172;51.504;3.894;2022-11-30T01:33:35;102208.00;;;15.23;88.09
32181;BME280;19172;51.504;3.894;2022-11-30T01:38:41;102221.34;;;15.28;85.89
32181;BME280;19172;51.504;3.894;2022-11-30T01:41:12;102220.41;;;15.23;85.80
32181;BME280;19172;51.504;3.894;2022-11-30T01:43:47;102209.78;;;15.24;86.66
32181;BME280;19172;51.504;3.894;2022-11-30T01:48:59;102219.34;;;14.91;86.24
32181;BME280;19172;51.504;3.894;2022-11-30T01:54:06;102231.75;;;14.89;86.92
32181;BME280;19172;51.504;3.894;2022-11-30T01:56:55;102225.38;;;14.64;87.96
32181;BME280;19172;51.504;3.894;2022-11-30T01:59:25;102223.72;;;14.84;89.49
32181;BME280;19172;51.504;3.894;2022-11-30T02:01:54;102231.81;;;14.95;90.15
32181;BME280;19172;51.504;3.894;2022-11-30T02:04:28;102228.19;;;14.88;89.91
32181;BME280;19172;51.504;3.894;2022-11-30T02:06:57;102216.56;;;14.75;90.02
32181;BME280;19172;51.504;3.894;2022-11-30T02:09:26;102214.03;;;14.97;91.04
32181;BME280;19172;51.504;3.894;2022-11-30T02:11:56;102214.06;;;15.00;90.70
32181;BME280;19172;51.504;3.894;2022-11-30T02:14:30;102219.47;;;15.09;90.13
32181;BME280;19172;51.504;3.894;2022-11-30T02:25:09;102229.66;;;14.47;88.08
32181;BME280;19172;51.504;3.894;2022-11-30T02:28:11;102229.03;;;14.79;89.59
32181;BME280;19172;51.504;3.894;2022-11-30T02:30:49;102234.16;;;14.54;89.34
32181;BME280;19172;51.504;3.894;2022-11-30T02:33:23;102225.31;;;14.59;90.23
32181;BME280;19172;51.504;3.894;2022-11-30T02:35:54;102225.41;;;14.68;89.75
32181;BME280;19172;51.504;3.894;2022-11-30T02:38:26;102223.59;;;14.64;90.00
32181;BME280;19172;51.504;3.894;2022-11-30T02:40:54;102228.16;;;14.79;89.59
32181;BME280;19172;51.504;3.894;2022-11-30T02:43:25;102229.66;;;14.45;90.46
32181;BME280;19172;51.504;3.894;2022-11-30T02:46:02;102227.13;;;14.60;90.82
32181;BME280;19172;51.504;3.894;2022-11-30T02:48:56;102226.06;;;14.39;90.21
32181;BME280;19172;51.504;3.894;2022-11-30T02:51:29;102229.72;;;14.51;90.25
32181;BME280;19172;51.504;3.894;2022-11-30T02:53:59;102232.31;;;14.44;90.77
32181;BME280;19172;51.504;3.894;2022-11-30T02:56:27;102229.00;;;14.73;90.75
32181;BME280;19172;51.504;3.894;2022-11-30T02:58:55;102231.66;;;14.73;89.88
32181;BME280;19172;51.504;3.894;2022-11-30T03:01:23;102229.06;;;14.82;89.72
32181;BME280;19172;51.504;3.894;2022-11-30T03:03:51;102224.69;;;14.92;89.91
32181;BME280;19172;51.504;3.894;2022-11-30T03:06:19;102227.28;;;14.84;89.29
32181;BME280;19172;51.504;3.894;2022-11-30T03:08:47;102224.63;;;14.84;89.12
32181;BME280;19172;51.504;3.894;2022-11-30T03:11:14;102218.59;;;15.11;89.28
32181;BME280;19172;51.504;3.894;2022-11-30T03:13:42;102228.25;;;14.97;88.31
32181;BME280;19172;51.504;3.894;2022-11-30T03:16:11;102237.97;;;14.86;88.29
32181;BME280;19172;51.504;3.894;2022-11-30T03:18:39;102235.34;;;14.95;88.14
32181;BME280;19172;51.504;3.894;2022-11-30T03:21:09;102235.53;;;15.24;88.44
32181;BME280;19172;51.504;3.894;2022-11-30T03:23:38;102238.84;;;14.83;87.50
32181;BME280;19172;51.504;3.894;2022-11-30T03:26:07;102237.25;;;15.16;87.34
32181;BME280;19172;51.504;3.894;2022-11-30T03:28:35;102245.19;;;15.10;86.86
32181;BME280;19172;51.504;3.894;2022-11-30T03:31:03;102239.75;;;14.89;86.36
32181;BME280;19172;51.504;3.894;2022-11-30T03:33:31;102234.47;;;14.95;86.92
32181;BME280;19172;51.504;3.894;2022-11-30T03:36:05;102232.84;;;15.18;87.89
32181;BME280;19172;51.504;3.894;2022-11-30T03:38:34;102231.13;;;15.30;86.68
32181;BME280;19172;51.504;3.894;2022-11-30T03:41:08;102248.75;;;15.10;85.75
32181;BME280;19172;51.504;3.894;2022-11-30T03:43:37;102238.91;;;14.93;85.85
32181;BME280;19172;51.504;3.894;2022-11-30T03:46:05;102231.88;;;15.08;86.36
32181;BME280;19172;51.504;3.894;2022-11-30T03:48:33;102240.78;;;15.13;85.74
32181;BME280;19172;51.504;3.894;2022-11-30T03:51:03;102241.34;;;14.65;84.84
32181;BME280;19172;51.504;3.894;2022-11-30T03:53:32;102230.72;;;14.68;86.19
32181;BME280;19172;51.504;3.894;2022-11-30T03:56:02;102231.69;;;14.81;87.24
32181;BME280;19172;51.504;3.894;2022-11-30T03:58:30;102239.84;;;14.99;87.89
32181;BME280;19172;51.504;3.894;2022-11-30T04:03:35;102243.41;;;15.07;85.76
32181;BME280;19172;51.504;3.894;2022-11-30T04:06:04;102240.78;;;15.12;85.33
32181;BME280;19172;51.504;3.894;2022-11-30T04:08:33;102237.22;;;15.10;84.59
32181;BME280;19172;51.504;3.894;2022-11-30T04:11:02;102239.00;;;15.08;84.14
32181;BME280;19172;51.504;3.894;2022-11-30T04:13:32;102238.66;;;14.58;83.99
32181;BME280;19172;51.504;3.894;2022-11-30T04:16:00;102252.03;;;14.70;85.45
32181;BME280;19172;51.504;3.894;2022-11-30T04:18:30;102251.22;;;14.78;86.04
32181;BME280;19172;51.504;3.894;2022-11-30T04:20:59;102246.84;;;14.88;86.77
32181;BME280;19172;51.504;3.894;2022-11-30T04:23:32;102249.41;;;14.74;86.86
32181;BME280;19172;51.504;3.894;2022-11-30T04:26:10;102257.59;;;15.02;86.55
32181;BME280;19172;51.504;3.894;2022-11-30T04:28:38;102254.09;;;15.10;86.45
32181;BME280;19172;51.504;3.894;2022-11-30T04:31:06;102241.66;;;15.11;86.01
32181;BME280;19172;51.504;3.894;2022-11-30T04:33:34;102249.66;;;15.11;85.93
32181;BME280;19172;51.504;3.894;2022-11-30T04:36:05;102247.97;;;15.25;85.89
32181;BME280;19172;51.504;3.894;2022-11-30T04:38:35;102250.69;;;15.31;85.24
32181;BME280;19172;51.504;3.894;2022-11-30T04:41:07;102254.09;;;15.10;84.18
32181;BME280;19172;51.504;3.894;2022-11-30T04:43:35;102261.19;;;15.10;84.53
32181;BME280;19172;51.504;3.894;2022-11-30T04:46:05;102256.94;;;15.38;84.04
32181;BME280;19172;51.504;3.894;2022-11-30T04:48:33;102261.94;;;14.89;82.51
32181;BME280;19172;51.504;3.894;2022-11-30T04:51:04;102255.72;;;14.89;83.11
32181;BME280;19172;51.504;3.894;2022-11-30T04:53:33;102260.22;;;14.96;83.82
32181;BME280;19172;51.504;3.894;2022-11-30T04:56:06;102257.56;;;14.97;84.09
32181;BME280;19172;51.504;3.894;2022-11-30T04:58:34;102262.91;;;14.99;83.73
32181;BME280;19172;51.504;3.894;2022-11-30T05:01:02;102266.97;;;14.51;83.47
32181;BME280;19172;51.504;3.894;2022-11-30T05:03:30;102269.09;;;14.98;84.46
32181;BME280;19172;51.504;3.894;2022-11-30T05:05:58;102262.84;;;14.90;84.32
32181;BME280;19172;51.504;3.894;2022-11-30T05:08:25;102259.28;;;14.91;84.93
32181;BME280;19172;51.504;3.894;2022-11-30T05:10:54;102263.78;;;14.98;85.23
32181;BME280;19172;51.504;3.894;2022-11-30T05:13:23;102265.63;;;15.09;85.39
32181;BME280;19172;51.504;3.894;2022-11-30T05:15:51;102264.84;;;15.24;84.73
32181;BME280;19172;51.504;3.894;2022-11-30T05:18:20;102269.19;;;15.08;83.08
32181;BME280;19172;51.504;3.894;2022-11-30T05:20:50;102272.66;;;14.95;82.58
32181;BME280;19172;51.504;3.894;2022-11-30T05:23:18;102272.47;;;14.72;83.54
32181;BME280;19172;51.504;3.894;2022-11-30T05:25:47;102269.84;;;14.78;83.57
32181;BME280;19172;51.504;3.894;2022-11-30T05:28:14;102274.31;;;14.79;84.22
32181;BME280;19172;51.504;3.894;2022-11-30T05:30:42;102270.06;;;15.07;83.66
32181;BME280;19172;51.504;3.894;2022-11-30T05:33:11;102274.41;;;14.92;83.66
32181;BME280;19172;51.504;3.894;2022-11-30T05:35:38;102276.25;;;15.05;83.76
32181;BME280;19172;51.504;3.894;2022-11-30T05:38:06;102270.78;;;14.82;83.09
32181;BME280;19172;51.504;3.894;2022-11-30T05:40:34;102274.41;;;14.92;83.99
32181;BME280;19172;51.504;3.894;2022-11-30T05:43:03;102280.63;;;14.97;84.57
32181;BME280;19172;51.504;3.894;2022-11-30T05:45:31;102279.00;;;15.14;84.86
32181;BME280;19172;51.504;3.894;2022-11-30T05:47:59;102284.34;;;15.15;84.35
32181;BME280;19172;51.504;3.894;2022-11-30T05:50:27;102284.31;;;15.14;84.39
32181;BME280;19172;51.504;3.894;2022-11-30T05:52:55;102280.91;;;15.36;82.88
32181;BME280;19172;51.504;3.894;2022-11-30T05:55:23;102284.97;;;14.79;82.23
32181;BME280;19172;51.504;3.894;2022-11-30T05:57:52;102293.00;;;14.87;82.71
32181;BME280;19172;51.504;3.894;2022-11-30T06:00:20;102277.97;;;14.92;82.81
32181;BME280;19172;51.504;3.894;2022-11-30T06:02:48;102285.75;;;14.69;82.85
32181;BME280;19172;51.504;3.894;2022-11-30T06:05:21;102286.63;;;14.68;84.81
32181;BME280;19172;51.504;3.894;2022-11-30T06:07:49;102284.06;;;14.79;85.50
32181;BME280;19172;51.504;3.894;2022-11-30T06:10:16;102283.28;;;14.94;85.02
32181;BME280;19172;51.504;3.894;2022-11-30T06:12:45;102293.88;;;14.83;84.95
32181;BME280;19172;51.504;3.894;2022-11-30T06:15:13;102297.34;;;14.77;85.47
32181;BME280;19172;51.504;3.894;2022-11-30T06:17:41;102293.03;;;14.92;85.42
32181;BME280;19172;51.504;3.894;2022-11-30T06:20:09;102294.97;;;15.14;85.00
32181;BME280;19172;51.504;3.894;2022-11-30T06:22:37;102290.47;;;15.05;83.31
32181;BME280;19172;51.504;3.894;2022-11-30T06:25:05;102290.28;;;14.81;83.62
32181;BME280;19172;51.504;3.894;2022-11-30T06:27:33;102292.09;;;14.83;84.19
32181;BME280;19172;51.504;3.894;2022-11-30T06:30:00;102291.38;;;15.07;83.82
32181;BME280;19172;51.504;3.894;2022-11-30T06:32:28;102291.25;;;14.94;83.87
32181;BME280;19172;51.504;3.894;2022-11-30T06:34:56;102283.25;;;14.91;84.18
32181;BME280;19172;51.504;3.894;2022-11-30T06:37:24;102294.84;;;14.93;83.97
32181;BME280;19172;51.504;3.894;2022-11-30T06:39:52;102289.47;;;14.87;84.46
32181;BME280;19172;51.504;3.894;2022-11-30T06:42:36;102294.00;;;15.01;84.04
32181;BME280;19172;51.504;3.894;2022-11-30T06:45:05;102293.97;;;14.98;83.30
32181;BME280;19172;51.504;3.894;2022-11-30T06:47:34;102292.97;;;14.82;83.76
32181;BME280;19172;51.504;3.894;2022-11-30T06:50:03;102294.72;;;14.79;84.00
32181;BME280;19172;51.504;3.894;2022-11-30T06:52:31;102297.44;;;14.87;84.64
32181;BME280;19172;51.504;3.894;2022-11-30T06:54:59;102307.25;;;14.94;85.12
32181;BME280;19172;51.504;3.894;2022-11-30T06:57:27;102298.44;;;14.99;85.03
32181;BME280;19172;51.504;3.894;2022-11-30T06:59:56;102303.84;;;15.16;84.66
32181;BME280;19172;51.504;3.894;2022-11-30T07:02:24;102309.31;;;15.34;82.68
32181;BME280;19172;51.504;3.894;2022-11-30T07:04:52;102312.78;;;15.22;81.21
32181;BME280;19172;51.504;3.894;2022-11-30T07:07:20;102316.03;;;14.82;81.12
32181;BME280;19172;51.504;3.894;2022-11-30T07:09:49;102312.38;;;14.69;82.33
32181;BME280;19172;51.504;3.894;2022-11-30T07:12:17;102319.50;;;14.70;83.46
32181;BME280;19172;51.504;3.894;2022-11-30T07:14:45;102319.53;;;14.75;84.15
32181;BME280;19172;51.504;3.894;2022-11-30T07:17:13;102316.88;;;14.76;84.64
32181;BME280;19172;51.504;3.894;2022-11-30T07:19:41;102324.91;;;14.79;84.82
32181;BME280;19172;51.504;3.894;2022-11-30T07:22:08;102329.38;;;14.83;84.38
32181;BME280;19172;51.504;3.894;2022-11-30T07:24:36;102333.84;;;14.86;84.15
32181;BME280;19172;51.504;3.894;2022-11-30T07:27:23;102341.81;;;14.84;84.08
32181;BME280;19172;51.504;3.894;2022-11-30T07:29:51;102348.94;;;14.89;83.25
32181;BME280;19172;51.504;3.894;2022-11-30T07:32:19;102353.41;;;14.90;82.42
32181;BME280;19172;51.504;3.894;2022-11-30T07:34:47;102348.91;;;14.82;82.48
32181;BME280;19172;51.504;3.894;2022-11-30T07:37:15;102347.09;;;14.81;81.62
32181;BME280;19172;51.504;3.894;2022-11-30T07:39:42;102350.69;;;14.85;82.16
32181;BME280;19172;51.504;3.894;2022-11-30T07:42:10;102352.44;;;14.81;82.64
32181;BME280;19172;51.504;3.894;2022-11-30T07:44:38;102351.59;;;14.89;82.27
32181;BME280;19172;51.504;3.894;2022-11-30T07:47:06;102359.56;;;14.87;82.02
32181;BME280;19172;51.504;3.894;2022-11-30T07:49:34;102363.03;;;14.74;81.52
32181;BME280;19172;51.504;3.894;2022-11-30T07:52:01;102359.50;;;14.76;81.74
32181;BME280;19172;51.504;3.894;2022-11-30T07:54:31;102371.81;;;14.64;82.04
32181;BME280;19172;51.504;3.894;2022-11-30T07:56:59;102387.78;;;14.65;82.66
32181;BME280;19172;51.504;3.894;2022-11-30T07:59:27;102377.19;;;14.71;83.23
32181;BME280;19172;51.504;3.894;2022-11-30T08:01:54;102373.59;;;14.68;83.18
32181;BME280;19172;51.504;3.894;2022-11-30T08:04:22;102377.09;;;14.61;82.59
32181;BME280;19172;51.504;3.894;2022-11-30T08:06:52;102385.88;;;14.54;82.98
32181;BME280;19172;51.504;3.894;2022-11-30T08:09:20;102380.56;;;14.55;83.18
32181;BME280;19172;51.504;3.894;2022-11-30T08:11:48;102378.63;;;14.39;83.13
32181;BME280;19172;51.504;3.894;2022-11-30T08:14:16;102383.91;;;14.35;84.15
32181;BME280;19172;51.504;3.894;2022-11-30T08:16:44;102385.47;;;14.19;83.91
32181;BME280;19172;51.504;3.894;2022-11-30T08:19:12;102396.09;;;14.19;85.13
32181;BME280;19172;51.504;3.894;2022-11-30T08:21:40;102397.25;;;14.38;85.78
32181;BME280;19172;51.504;3.894;2022-11-30T08:24:10;102402.53;;;14.35;86.31
32181;BME280;19172;51.504;3.894;2022-11-30T08:26:38;102403.47;;;14.40;87.47
32181;BME280;19172;51.504;3.894;2022-11-30T08:29:08;102409.75;;;14.46;87.71
32181;BME280;19172;51.504;3.894;2022-11-30T08:31:38;102414.38;;;14.62;88.85
32181;BME280;19172;51.504;3.894;2022-11-30T08:34:11;102412.72;;;14.75;88.20
32181;BME280;19172;51.504;3.894;2022-11-30T08:36:40;102413.66;;;14.77;88.47
32181;BME280;19172;51.504;3.894;2022-11-30T08:39:11;102410.19;;;14.86;88.79
32181;BME280;19172;51.504;3.894;2022-11-30T08:41:39;102410.09;;;14.78;88.02
32181;BME280;19172;51.504;3.894;2022-11-30T08:44:07;102404.81;;;14.82;88.27
32181;BME280;19172;51.504;3.894;2022-11-30T08:46:35;102413.69;;;14.81;88.48
32181;BME280;19172;51.504;3.894;2022-11-30T08:49:21;102418.09;;;14.79;88.21
32181;BME280;19172;51.504;3.894;2022-11-30T08:52:09;102415.53;;;14.90;88.36
32181;BME280;19172;51.504;3.894;2022-11-30T08:54:46;102412.84;;;14.86;88.57
32181;BME280;19172;51.504;3.894;2022-11-30T08:57:16;102416.28;;;14.75;89.00
32181;BME280;19172;51.504;3.894;2022-11-30T08:59:45;102414.66;;;14.91;89.24
32181;BME280;19172;51.504;3.894;2022-11-30T09:02:15;102412.00;;;14.91;89.01
32181;BME280;19172;51.504;3.894;2022-11-30T09:04:47;102421.00;;;15.04;88.22
32181;BME280;19172;51.504;3.894;2022-11-30T09:07:16;102417.31;;;14.90;87.55
32181;BME280;19172;51.504;3.894;2022-11-30T09:09:44;102412.81;;;14.82;87.41
32181;BME280;19172;51.504;3.894;2022-11-30T09:12:12;102420.81;;;14.87;87.38
32181;BME280;19172;51.504;3.894;2022-11-30T09:14:40;102424.19;;;14.68;87.12
32181;BME280;19172;51.504;3.894;2022-11-30T09:17:08;102432.41;;;14.91;88.14
32181;BME280;19172;51.504;3.894;2022-11-30T09:19:36;102427.13;;;14.97;88.71
32181;BME280;19172;51.504;3.894;2022-11-30T09:22:03;102428.03;;;14.96;88.74
32181;BME280;19172;51.504;3.894;2022-11-30T09:24:31;102428.16;;;15.08;87.64
32181;BME280;19172;51.504;3.894;2022-11-30T09:26:59;102431.69;;;15.05;87.29
32181;BME280;19172;51.504;3.894;2022-11-30T09:29:27;102437.78;;;14.97;86.86
32181;BME280;19172;51.504;3.894;2022-11-30T09:31:55;102428.81;;;14.86;85.83
32181;BME280;19172;51.504;3.894;2022-11-30T09:34:22;102448.16;;;14.68;86.39
32181;BME280;19172;51.504;3.894;2022-11-30T09:36:50;102443.56;;;14.53;86.98
32181;BME280;19172;51.504;3.894;2022-11-30T09:39:18;102443.66;;;14.61;87.55
32181;BME280;19172;51.504;3.894;2022-11-30T09:41:50;102450.97;;;14.80;88.05
32181;BME280;19172;51.504;3.894;2022-11-30T09:45:01;102446.59;;;14.87;88.14
32181;BME280;19172;51.504;3.894;2022-11-30T09:50:20;102447.69;;;15.10;88.28
32181;BME280;19172;51.504;3.894;2022-11-30T09:52:54;102446.06;;;15.25;87.42
32181;BME280;19172;51.504;3.894;2022-11-30T09:55:35;102445.44;;;15.52;87.18
32181;BME280;19172;51.504;3.894;2022-11-30T09:58:09;102449.91;;;15.56;86.29
32181;BME280;19172;51.504;3.894;2022-11-30T10:00:38;102444.66;;;15.71;85.48
32181;BME280;19172;51.504;3.894;2022-11-30T10:03:06;102447.38;;;14.76;83.67
32181;BME280;19172;51.504;3.894;2022-11-30T10:06:10;102451.47;;;15.36;86.01
32181;BME280;19172;51.504;3.894;2022-11-30T10:11:23;102456.13;;;15.54;86.30
32181;BME280;19172;51.504;3.894;2022-11-30T10:14:10;102457.81;;;15.47;84.92
32181;BME280;19172;51.504;3.894;2022-11-30T10:26:14;102447.91;;;15.34;85.65
32181;BME280;19172;51.504;3.894;2022-11-30T10:28:51;102435.53;;;15.42;85.65
32181;BME280;19172;51.504;3.894;2022-11-30T10:31:30;102437.38;;;15.48;85.68
32181;BME280;19172;51.504;3.894;2022-11-30T10:34:17;102432.09;;;15.51;85.66
32181;BME280;19172;51.504;3.894;2022-11-30T10:37:03;102434.78;;;15.55;85.96
32181;BME280;19172;51.504;3.894;2022-11-30T10:39:46;102440.19;;;15.67;85.87
32181;BME280;19172;51.504;3.894;2022-11-30T10:42:39;102441.91;;;15.56;84.19
32181;BME280;19172;51.504;3.894;2022-11-30T10:45:12;102439.25;;;15.58;84.61
32181;BME280;19172;51.504;3.894;2022-11-30T10:47:47;102438.44;;;15.69;85.48
32181;BME280;19172;51.504;3.894;2022-11-30T10:50:17;102430.47;;;15.74;85.24
32181;BME280;19172;51.504;3.894;2022-11-30T10:52:51;102433.19;;;15.81;84.91
32181;BME280;19172;51.504;3.894;2022-11-30T10:55:23;102429.63;;;15.81;83.81
32181;BME280;19172;51.504;3.894;2022-11-30T10:58:20;102428.63;;;15.65;84.05
32181;BME280;19172;51.504;3.894;2022-11-30T11:03:28;102426.84;;;15.67;86.61
32181;BME280;19172;51.504;3.894;2022-11-30T11:08:40;102421.38;;;15.48;87.51
32181;BME280;19172;51.504;3.894;2022-11-30T11:11:30;102423.38;;;15.76;86.44
32181;BME280;19172;51.504;3.894;2022-11-30T11:14:20;102423.41;;;15.83;85.62
32181;BME280;19172;51.504;3.894;2022-11-30T11:19:47;102423.44;;;15.93;86.00
32181;BME280;19172;51.504;3.894;2022-11-30T11:22:22;102425.31;;;16.01;86.06
32181;BME280;19172;51.504;3.894;2022-11-30T11:24:54;102416.41;;;16.04;85.60
32181;BME280;19172;51.504;3.894;2022-11-30T11:27:34;102410.22;;;16.08;85.48
32181;BME280;19172;51.504;3.894;2022-11-30T11:32:59;102411.16;;;16.20;83.24
32181;BME280;19172;51.504;3.894;2022-11-30T11:35:42;102415.44;;;15.93;81.46
32181;BME280;19172;51.504;3.894;2022-11-30T11:38:50;102411.81;;;15.80;81.55
32181;BME280;19172;51.504;3.894;2022-11-30T11:41:31;102411.66;;;15.50;82.29
32181;BME280;19172;51.504;3.894;2022-11-30T11:46:34;102401.94;;;15.59;85.81
32181;BME280;19172;51.504;3.894;2022-11-30T11:49:05;102408.94;;;15.48;86.75
32181;BME280;19172;51.504;3.894;2022-11-30T11:51:37;102402.00;;;15.71;87.65
32181;BME280;19172;51.504;3.894;2022-11-30T11:54:32;102404.72;;;15.80;87.77
32181;BME280;19172;51.504;3.894;2022-11-30T11:57:01;102400.41;;;16.04;87.62
32181;BME280;19172;51.504;3.894;2022-11-30T11:59:49;102400.28;;;15.81;86.36
32181;BME280;19172;51.504;3.894;2022-11-30T12:05:32;102411.06;;;16.04;84.67
32181;BME280;19172;51.504;3.894;2022-11-30T12:08:24;102407.59;;;16.24;85.91
32181;BME280;19172;51.504;3.894;2022-11-30T12:10:56;102405.63;;;15.81;84.52
32181;BME280;19172;51.504;3.894;2022-11-30T12:13:32;102408.44;;;16.13;85.55
32181;BME280;19172;51.504;3.894;2022-11-30T12:24:42;102409.47;;;16.45;83.84
32181;BME280;19172;51.504;3.894;2022-11-30T12:30:14;102419.09;;;16.07;83.67
32181;BME280;19172;51.504;3.894;2022-11-30T12:36:04;102426.91;;;15.76;85.65
32181;BME280;19172;51.504;3.894;2022-11-30T12:41:29;102419.81;;;15.77;86.71
32181;BME280;19172;51.504;3.894;2022-11-30T12:44:07;102422.47;;;15.77;88.23
32181;BME280;19172;51.504;3.894;2022-11-30T12:49:56;102424.47;;;16.16;89.25
32181;BME280;19172;51.504;3.894;2022-11-30T12:52:42;102418.25;;;16.24;90.29
32181;BME280;19172;51.504;3.894;2022-11-30T12:58:23;102423.78;;;16.64;86.50
32181;BME280;19172;51.504;3.894;2022-11-30T13:06:41;102413.09;;;16.58;86.95
32181;BME280;19172;51.504;3.894;2022-11-30T13:09:30;102413.09;;;16.67;86.66
32181;BME280;19172;51.504;3.894;2022-11-30T13:14:57;102416.63;;;16.60;86.92
32181;BME280;19172;51.504;3.894;2022-11-30T13:17:26;102405.81;;;16.22;85.28
32181;BME280;19172;51.504;3.894;2022-11-30T13:20:04;102413.00;;;16.36;86.04
32181;BME280;19172;51.504;3.894;2022-11-30T13:25:56;102416.63;;;16.60;88.14
32181;BME280;19172;51.504;3.894;2022-11-30T13:31:26;102414.94;;;16.84;85.02
32181;BME280;19172;51.504;3.894;2022-11-30T13:33:58;102427.38;;;16.76;84.69
32181;BME280;19172;51.504;3.894;2022-11-30T13:36:41;102431.88;;;16.97;85.55
32181;BME280;19172;51.504;3.894;2022-11-30T13:41:47;102430.00;;;16.57;84.96
32181;BME280;19172;51.504;3.894;2022-11-30T13:47:16;102427.41;;;16.87;84.16
32181;BME280;19172;51.504;3.894;2022-11-30T13:49:54;102428.25;;;16.68;83.68
32181;BME280;19172;51.504;3.894;2022-11-30T13:58:18;102432.72;;;16.91;84.21
32181;BME280;19172;51.504;3.894;2022-11-30T14:01:01;102437.22;;;16.91;83.42
32181;BME280;19172;51.504;3.894;2022-11-30T14:03:31;102439.88;;;16.86;83.98
32181;BME280;19172;51.504;3.894;2022-11-30T14:09:16;102438.09;;;16.87;83.41
32181;BME280;19172;51.504;3.894;2022-11-30T14:15:00;102453.03;;;16.33;83.49
32181;BME280;19172;51.504;3.894;2022-11-30T14:17:32;102453.69;;;15.90;84.54
32181;BME280;19172;51.504;3.894;2022-11-30T14:20:16;102454.69;;;16.12;86.31
32181;BME280;19172;51.504;3.894;2022-11-30T14:22:47;102468.16;;;16.30;87.17
32181;BME280;19172;51.504;3.894;2022-11-30T14:25:17;102468.75;;;15.83;87.81
32181;BME280;19172;51.504;3.894;2022-11-30T14:27:50;102459.00;;;15.82;89.76
32181;BME280;19172;51.504;3.894;2022-11-30T14:30:21;102462.66;;;16.06;91.24
32181;BME280;19172;51.504;3.894;2022-11-30T14:33:00;102467.22;;;16.25;91.62
32181;BME280;19172;51.504;3.894;2022-11-30T14:35:31;102453.03;;;16.38;90.03
32181;BME280;19172;51.504;3.894;2022-11-30T14:38:00;102449.56;;;16.57;90.70
32181;BME280;19172;51.504;3.894;2022-11-30T14:40:28;102453.19;;;16.68;89.52
32181;BME280;19172;51.504;3.894;2022-11-30T14:43:01;102457.69;;;17.01;88.04
32181;BME280;19172;51.504;3.894;2022-11-30T14:45:32;102455.00;;;16.84;86.37
32181;BME280;19172;51.504;3.894;2022-11-30T14:48:08;102452.31;;;16.86;86.11
32181;BME280;19172;51.504;3.894;2022-11-30T14:50:48;102447.88;;;16.85;84.77
32181;BME280;19172;51.504;3.894;2022-11-30T14:53:29;102443.38;;;16.64;84.07
32181;BME280;19172;51.504;3.894;2022-11-30T14:56:31;102444.09;;;16.31;84.48
32181;BME280;19172;51.504;3.894;2022-11-30T15:01:44;102442.50;;;16.67;85.90
32181;BME280;19172;51.504;3.894;2022-11-30T15:04:15;102446.06;;;16.76;87.15